Time;durP1;ratioP1;P1;durP2;ratioP2;P2;SDS_P1;SDS_P2;PMS_P1;PMS_P2;Temp;Humidity;BMP_temperature;BMP_pressure;BME280_temperature;BME280_humidity;BME280_pressure;Samples;Min_cycle;Max_cycle;Signal;HPM_P1;HPM_P2
2023/06/09 00:01:00;;;;;;;3.95;2.25;;;;;;;;;;5055596;28;23378;-80
2023/06/09 00:03:26;;;;;;;4.13;2.70;;;;;;;;;;5064574;28;20056;-80
2023/06/09 00:05:51;;;;;;;3.78;3.00;;;;;;;;;;5065805;28;20146;-80
2023/06/09 00:08:17;;;;;;;4.37;2.67;;;;;;;;;;5068635;28;20028;-80
2023/06/09 00:10:42;;;;;;;3.28;2.38;;;;;;;;;;5070242;28;20028;-80
2023/06/09 00:13:07;;;;;;;3.13;2.40;;;;;;;;;;5070045;28;20549;-80
2023/06/09 00:15:32;;;;;;;3.50;2.40;;;;;;;;;;5052241;28;20270;-80
2023/06/09 00:17:58;;;;;;;3.73;2.47;;;;;;;;;;5068730;28;20266;-80
2023/06/09 00:20:25;;;;;;;3.90;2.80;;;;;;;;;;5073667;28;20479;-80
2023/06/09 00:22:53;;;;;;;4.70;2.70;;;;;;;;;;5069314;28;20367;-81
2023/06/09 00:25:21;;;;;;;4.00;2.42;;;;;;;;;;5069412;28;20182;-80
2023/06/09 00:27:46;;;;;;;3.20;2.70;;;;;;;;;;5068206;28;20043;-80
2023/06/09 00:30:13;;;;;;;4.30;2.88;;;;;;;;;;5069025;28;20049;-80
2023/06/09 00:32:39;;;;;;;3.83;2.60;;;;;;;;;;5051962;28;20040;-80
2023/06/09 00:35:04;;;;;;;3.97;2.80;;;;;;;;;;5070381;28;20341;-80
2023/06/09 00:37:30;;;;;;;3.75;2.70;;;;;;;;;;5069365;28;20396;-80
2023/06/09 00:39:56;;;;;;;3.38;2.42;;;;;;;;;;5073326;28;20136;-80
2023/06/09 00:42:21;;;;;;;3.63;2.55;;;;;;;;;;5078837;28;20095;-80
2023/06/09 00:44:46;;;;;;;4.30;2.40;;;;;;;;;;5069056;28;20051;-80
2023/06/09 00:47:11;;;;;;;3.60;2.58;;;;;;;;;;5066437;28;20375;-80
2023/06/09 00:49:36;;;;;;;3.53;2.43;;;;;;;;;;5067731;28;20039;-81
2023/06/09 00:52:02;;;;;;;4.73;2.60;;;;;;;;;;5067933;28;20170;-80
2023/06/09 00:54:27;;;;;;;3.95;2.60;;;;;;;;;;5054218;28;20086;-80
2023/06/09 00:56:55;;;;;;;2.92;2.47;;;;;;;;;;5073237;28;20074;-80
2023/06/09 00:59:20;;;;;;;3.47;2.58;;;;;;;;;;5066912;28;20041;-80
2023/06/09 01:01:46;;;;;;;3.90;2.67;;;;;;;;;;5068351;28;20044;-80
2023/06/09 01:04:12;;;;;;;3.10;2.35;;;;;;;;;;5086188;28;20036;-80
2023/06/09 01:06:44;;;;;;;3.78;2.40;;;;;;;;;;5069019;28;20040;-81
2023/06/09 01:09:28;;;;;;;3.90;2.70;;;;;;;;;;5066906;28;20027;-80
2023/06/09 01:11:58;;;;;;;4.30;2.72;;;;;;;;;;5066451;28;20585;-80
2023/06/09 01:14:24;;;;;;;3.65;2.22;;;;;;;;;;5047821;28;20123;-80
2023/06/09 01:17:08;;;;;;;3.40;2.35;;;;;;;;;;5066941;28;20135;-79
2023/06/09 01:19:40;;;;;;;2.95;2.05;;;;;;;;;;5050045;28;20462;-80
2023/06/09 01:22:12;;;;;;;4.55;2.97;;;;;;;;;;5050727;28;20780;-80
2023/06/09 01:24:57;;;;;;;3.90;2.70;;;;;;;;;;5066607;28;20052;-80
2023/06/09 01:27:23;;;;;;;5.00;2.80;;;;;;;;;;5067218;28;20071;-80
2023/06/09 01:29:51;;;;;;;3.28;2.55;;;;;;;;;;5065899;28;20077;-80
2023/06/09 01:32:16;;;;;;;3.60;2.45;;;;;;;;;;5051134;28;20467;-80
2023/06/09 01:34:42;;;;;;;3.42;2.22;;;;;;;;;;5065694;28;20033;-80
2023/06/09 01:37:07;;;;;;;2.97;2.30;;;;;;;;;;5069937;28;20119;-80
2023/06/09 01:39:32;;;;;;;2.93;2.03;;;;;;;;;;5070520;28;20043;-80
2023/06/09 01:41:57;;;;;;;2.80;2.20;;;;;;;;;;5068606;28;20303;-78
2023/06/09 01:44:23;;;;;;;3.83;2.30;;;;;;;;;;5075814;28;20478;-79
2023/06/09 01:46:48;;;;;;;3.80;2.37;;;;;;;;;;5074836;28;20458;-79
2023/06/09 01:49:24;;;;;;;3.67;2.67;;;;;;;;;;5051379;28;20316;-79
2023/06/09 01:51:49;;;;;;;3.63;2.60;;;;;;;;;;5069873;28;20352;-77
2023/06/09 01:54:16;;;;;;;3.43;2.47;;;;;;;;;;5068177;28;20402;-79
2023/06/09 01:56:44;;;;;;;2.97;2.33;;;;;;;;;;5066546;28;20298;-79
2023/06/09 01:59:11;;;;;;;4.10;2.83;;;;;;;;;;5066649;28;20136;-79
2023/06/09 02:01:36;;;;;;;4.30;2.65;;;;;;;;;;5066682;28;20029;-80
2023/06/09 02:04:02;;;;;;;3.08;2.05;;;;;;;;;;5046288;28;20435;-78
2023/06/09 02:06:27;;;;;;;4.30;2.53;;;;;;;;;;5025773;28;20060;-80
2023/06/09 02:08:52;;;;;;;3.55;2.63;;;;;;;;;;5022900;28;20133;-79
2023/06/09 02:11:18;;;;;;;3.63;2.20;;;;;;;;;;5048091;28;20478;-78
2023/06/09 02:13:43;;;;;;;3.30;2.23;;;;;;;;;;5053736;28;20934;-78
2023/06/09 02:16:08;;;;;;;4.60;2.70;;;;;;;;;;5046957;28;20020;-78
2023/06/09 02:18:33;;;;;;;3.00;2.13;;;;;;;;;;5047217;28;20276;-79
2023/06/09 02:20:59;;;;;;;4.47;2.30;;;;;;;;;;5048673;28;20116;-79
2023/06/09 02:23:24;;;;;;;3.92;2.17;;;;;;;;;;5045544;28;20029;-78
2023/06/09 02:25:49;;;;;;;4.15;2.40;;;;;;;;;;5032511;28;20030;-79
2023/06/09 02:28:16;;;;;;;2.97;2.03;;;;;;;;;;5026183;28;20017;-79
2023/06/09 02:30:41;;;;;;;4.10;2.25;;;;;;;;;;5057240;28;21167;-79
2023/06/09 02:33:07;;;;;;;4.03;2.20;;;;;;;;;;5028077;28;20051;-80
2023/06/09 02:35:32;;;;;;;3.23;2.37;;;;;;;;;;5059313;28;20936;-79
2023/06/09 02:38:00;;;;;;;2.88;2.10;;;;;;;;;;5029251;28;20014;-79
2023/06/09 02:40:26;;;;;;;3.03;2.10;;;;;;;;;;5043970;28;20025;-79
2023/06/09 02:42:51;;;;;;;3.25;2.17;;;;;;;;;;5050348;28;20059;-79
2023/06/09 02:45:17;;;;;;;3.13;2.17;;;;;;;;;;5057545;28;20049;-77
2023/06/09 02:47:42;;;;;;;5.55;2.80;;;;;;;;;;5026422;28;20043;-77
2023/06/09 02:50:08;;;;;;;3.47;2.07;;;;;;;;;;5023285;28;20021;-76
2023/06/09 02:52:34;;;;;;;3.83;2.05;;;;;;;;;;5025108;28;20021;-77
2023/06/09 02:54:59;;;;;;;4.60;2.15;;;;;;;;;;5041538;28;20035;-77
2023/06/09 02:57:25;;;;;;;3.97;2.28;;;;;;;;;;5022361;28;20022;-76
2023/06/09 02:59:51;;;;;;;3.88;1.92;;;;;;;;;;5016638;28;20024;-77
2023/06/09 03:02:16;;;;;;;2.58;1.73;;;;;;;;;;5022111;28;20057;-78
2023/06/09 03:04:42;;;;;;;3.60;2.17;;;;;;;;;;5005898;28;20037;-77
2023/06/09 03:07:13;;;;;;;2.75;1.85;;;;;;;;;;5002315;28;20022;-77
2023/06/09 03:09:39;;;;;;;5.35;1.98;;;;;;;;;;5003339;28;20150;-77
2023/06/09 03:12:05;;;;;;;3.42;2.15;;;;;;;;;;5004145;28;20116;-77
2023/06/09 03:14:31;;;;;;;2.75;2.10;;;;;;;;;;4995688;28;20033;-77
2023/06/09 03:16:58;;;;;;;3.60;2.10;;;;;;;;;;5003598;28;20042;-77
2023/06/09 03:19:23;;;;;;;3.78;2.28;;;;;;;;;;5005718;28;20711;-77
2023/06/09 03:21:49;;;;;;;3.65;2.30;;;;;;;;;;5006234;28;20061;-76
2023/06/09 03:24:14;;;;;;;3.03;2.00;;;;;;;;;;5005403;28;20097;-77
2023/06/09 03:26:39;;;;;;;3.03;2.28;;;;;;;;;;5000532;28;20524;-77
2023/06/09 03:29:05;;;;;;;3.93;2.00;;;;;;;;;;5011393;28;20790;-78
2023/06/09 03:31:30;;;;;;;2.73;1.77;;;;;;;;;;4994104;28;20627;-79
2023/06/09 03:33:56;;;;;;;2.70;1.77;;;;;;;;;;5001227;28;20293;-77
2023/06/09 03:36:22;;;;;;;2.25;1.77;;;;;;;;;;5004364;28;20277;-78
2023/06/09 03:38:48;;;;;;;3.22;2.15;;;;;;;;;;5004692;28;20496;-77
2023/06/09 03:41:13;;;;;;;3.40;2.10;;;;;;;;;;4995174;28;20038;-78
2023/06/09 03:43:38;;;;;;;2.47;1.60;;;;;;;;;;5000554;28;20108;-78
2023/06/09 03:46:03;;;;;;;6.03;2.27;;;;;;;;;;4987397;28;20057;-79
2023/06/09 03:48:29;;;;;;;4.00;2.10;;;;;;;;;;5017361;28;20039;-78
2023/06/09 03:50:54;;;;;;;6.07;2.33;;;;;;;;;;5004193;28;20578;-78
2023/06/09 03:53:20;;;;;;;7.18;2.72;;;;;;;;;;5002231;28;20339;-78
2023/06/09 03:55:45;;;;;;;6.00;2.30;;;;;;;;;;5001555;28;20061;-78
2023/06/09 03:58:12;;;;;;;4.20;2.10;;;;;;;;;;4971538;28;20736;-80
2023/06/09 04:00:37;;;;;;;4.53;2.15;;;;;;;;;;4997961;28;20029;-77
2023/06/09 04:03:02;;;;;;;5.23;2.40;;;;;;;;;;5010187;28;20563;-77
2023/06/09 04:05:28;;;;;;;4.80;2.60;;;;;;;;;;5024015;28;20504;-77
2023/06/09 04:07:53;;;;;;;5.03;2.45;;;;;;;;;;5038242;28;20037;-78
2023/06/09 04:10:19;;;;;;;5.30;2.25;;;;;;;;;;5038232;28;20116;-78
2023/06/09 04:12:44;;;;;;;6.30;2.60;;;;;;;;;;5011920;28;20034;-77
2023/06/09 04:15:09;;;;;;;4.77;2.43;;;;;;;;;;5018754;28;20029;-80
2023/06/09 04:17:36;;;;;;;5.95;2.63;;;;;;;;;;5041663;28;20321;-82
2023/06/09 04:20:04;;;;;;;7.55;3.05;;;;;;;;;;5034416;28;20500;-80
2023/06/09 04:22:30;;;;;;;7.43;2.78;;;;;;;;;;5043617;28;20047;-79
2023/06/09 04:24:55;;;;;;;5.00;2.42;;;;;;;;;;5040775;28;20050;-78
2023/06/09 04:27:23;;;;;;;5.00;2.28;;;;;;;;;;5039074;28;20726;-80
2023/06/09 04:29:49;;;;;;;3.75;2.20;;;;;;;;;;5039479;28;20088;-79
2023/06/09 04:32:15;;;;;;;4.28;2.05;;;;;;;;;;5047330;28;20616;-79
2023/06/09 04:34:40;;;;;;;4.30;2.70;;;;;;;;;;5054717;28;20045;-74
2023/06/09 04:37:08;;;;;;;6.18;2.60;;;;;;;;;;5052300;28;20060;-75
2023/06/09 04:39:34;;;;;;;4.38;2.38;;;;;;;;;;5042981;28;20044;-75
2023/06/09 04:42:03;;;;;;;4.20;2.33;;;;;;;;;;5040401;28;20045;-76
2023/06/09 04:44:28;;;;;;;5.60;2.53;;;;;;;;;;5040286;28;20574;-76
2023/06/09 04:46:54;;;;;;;3.13;2.00;;;;;;;;;;5031292;28;20288;-78
2023/06/09 04:49:20;;;;;;;4.17;2.27;;;;;;;;;;5040441;28;20098;-81
2023/06/09 04:51:49;;;;;;;5.35;2.40;;;;;;;;;;5020342;28;20285;-85
2023/06/09 04:54:18;;;;;;;3.95;2.35;;;;;;;;;;5044147;28;20071;-85
2023/06/09 04:56:43;;;;;;;5.80;2.60;;;;;;;;;;5042090;28;20036;-76
2023/06/09 04:59:12;;;;;;;5.80;2.35;;;;;;;;;;5038734;28;20077;-77
2023/06/09 05:01:38;;;;;;;4.38;2.55;;;;;;;;;;5042673;28;20036;-79
2023/06/09 05:04:04;;;;;;;5.43;2.33;;;;;;;;;;5036824;28;20037;-79
2023/06/09 05:06:29;;;;;;;5.40;2.70;;;;;;;;;;5042567;28;20157;-80
2023/06/09 05:08:55;;;;;;;3.30;2.30;;;;;;;;;;5037122;28;20029;-77
2023/06/09 05:11:20;;;;;;;3.97;2.30;;;;;;;;;;5036353;28;20021;-77
2023/06/09 05:13:46;;;;;;;4.50;2.35;;;;;;;;;;5029915;28;20120;-77
2023/06/09 05:16:12;;;;;;;3.58;2.10;;;;;;;;;;5020457;28;20030;-77
2023/06/09 05:18:37;;;;;;;3.83;2.28;;;;;;;;;;5000077;28;20173;-77
2023/06/09 05:21:02;;;;;;;4.65;2.42;;;;;;;;;;5019742;28;20440;-82
2023/06/09 05:23:30;;;;;;;4.85;2.60;;;;;;;;;;5041615;28;20100;-80
2023/06/09 05:25:56;;;;;;;5.60;2.45;;;;;;;;;;5036964;28;20175;-86
2023/06/09 05:28:22;;;;;;;4.85;2.60;;;;;;;;;;5036492;28;20124;-83
2023/06/09 05:30:47;;;;;;;6.38;2.70;;;;;;;;;;5044368;28;20484;-77
2023/06/09 05:33:12;;;;;;;7.37;2.43;;;;;;;;;;5040365;28;20029;-78
2023/06/09 05:35:37;;;;;;;4.90;2.30;;;;;;;;;;5041258;28;20978;-78
2023/06/09 05:38:03;;;;;;;5.80;2.22;;;;;;;;;;5039229;28;20030;-77
2023/06/09 05:40:28;;;;;;;5.50;2.13;;;;;;;;;;5039189;28;20039;-79
2023/06/09 05:42:53;;;;;;;3.23;2.27;;;;;;;;;;5041493;28;20317;-84
2023/06/09 05:45:18;;;;;;;4.23;2.37;;;;;;;;;;5040166;28;20107;-78
2023/06/09 05:47:44;;;;;;;5.60;2.50;;;;;;;;;;5040061;28;20350;-80
2023/06/09 05:50:09;;;;;;;4.00;2.27;;;;;;;;;;5036952;28;20060;-82
2023/06/09 05:52:34;;;;;;;5.05;2.70;;;;;;;;;;5041544;28;20286;-80
2023/06/09 05:55:01;;;;;;;5.47;2.87;;;;;;;;;;5041452;28;20103;-81
2023/06/09 05:57:29;;;;;;;5.70;2.80;;;;;;;;;;5039524;28;20291;-77
2023/06/09 05:59:56;;;;;;;4.43;2.35;;;;;;;;;;5037536;28;20755;-77
2023/06/09 06:02:21;;;;;;;6.75;2.58;;;;;;;;;;5043848;28;20437;-78
2023/06/09 06:04:46;;;;;;;5.17;2.40;;;;;;;;;;5036170;28;20030;-78
2023/06/09 06:07:14;;;;;;;5.00;2.53;;;;;;;;;;5016661;28;20288;-77
2023/06/09 06:09:39;;;;;;;4.05;2.20;;;;;;;;;;5032508;28;20280;-77
2023/06/09 06:12:06;;;;;;;5.33;2.40;;;;;;;;;;5038332;28;20060;-79
2023/06/09 06:14:32;;;;;;;4.65;2.30;;;;;;;;;;5019478;28;20283;-87
2023/06/09 06:16:58;;;;;;;3.30;2.10;;;;;;;;;;5021941;28;20033;-79
2023/06/09 06:19:23;;;;;;;4.28;2.33;;;;;;;;;;5019920;28;20067;-78
2023/06/09 06:21:48;;;;;;;6.17;2.40;;;;;;;;;;5047400;28;20025;-79
2023/06/09 06:24:13;;;;;;;5.10;2.43;;;;;;;;;;5019764;28;20102;-78
2023/06/09 06:26:39;;;;;;;6.13;2.30;;;;;;;;;;5021463;28;20293;-77
2023/06/09 06:29:04;;;;;;;6.70;2.20;;;;;;;;;;5044203;28;20971;-81
2023/06/09 06:31:29;;;;;;;3.40;2.20;;;;;;;;;;5032046;28;20299;-78
2023/06/09 06:33:55;;;;;;;4.07;2.17;;;;;;;;;;5041565;28;20303;-79
2023/06/09 06:36:21;;;;;;;4.03;1.83;;;;;;;;;;5005100;28;20451;-79
2023/06/09 06:38:47;;;;;;;5.68;2.53;;;;;;;;;;5032654;28;20048;-79
2023/06/09 06:41:12;;;;;;;3.58;2.10;;;;;;;;;;5022014;28;20045;-79
2023/06/09 06:43:37;;;;;;;3.47;2.20;;;;;;;;;;5015023;28;20076;-79
2023/06/09 06:46:02;;;;;;;6.37;2.47;;;;;;;;;;5042484;28;20029;-80
2023/06/09 06:48:28;;;;;;;4.38;2.53;;;;;;;;;;5040150;28;20164;-79
2023/06/09 06:50:53;;;;;;;5.78;2.20;;;;;;;;;;5026186;28;20030;-79
2023/06/09 06:53:19;;;;;;;4.53;2.35;;;;;;;;;;5015038;28;20056;-79
2023/06/09 06:55:44;;;;;;;3.97;2.25;;;;;;;;;;5035056;28;20457;-79
2023/06/09 06:58:09;;;;;;;4.05;2.10;;;;;;;;;;5043119;28;20109;-79
2023/06/09 07:00:35;;;;;;;4.85;2.53;;;;;;;;;;5026737;28;20053;-79
2023/06/09 07:03:00;;;;;;;4.70;2.35;;;;;;;;;;5053244;28;20045;-92
2023/06/09 07:05:26;;;;;;;3.33;2.10;;;;;;;;;;5034181;28;20037;-89
2023/06/09 07:07:51;;;;;;;4.15;2.40;;;;;;;;;;5053277;28;20515;-89
2023/06/09 07:10:16;;;;;;;3.72;2.20;;;;;;;;;;5072159;28;20037;-90
2023/06/09 07:12:42;;;;;;;4.57;2.20;;;;;;;;;;5071769;28;20046;-90
2023/06/09 07:15:07;;;;;;;5.63;2.42;;;;;;;;;;5065283;28;20337;-92
2023/06/09 07:17:32;;;;;;;4.13;2.35;;;;;;;;;;5064609;28;20029;-88
2023/06/09 07:19:58;;;;;;;5.30;2.63;;;;;;;;;;5064519;28;20039;-89
2023/06/09 07:22:23;;;;;;;3.70;2.33;;;;;;;;;;5066363;28;20353;-89
2023/06/09 07:24:48;;;;;;;4.15;2.08;;;;;;;;;;5085131;28;20310;-89
2023/06/09 07:27:14;;;;;;;3.60;2.33;;;;;;;;;;5066895;28;20017;-89
2023/06/09 07:29:41;;;;;;;4.32;2.40;;;;;;;;;;5068916;28;20928;-90
2023/06/09 07:32:07;;;;;;;4.13;2.45;;;;;;;;;;5086395;28;20086;-91
2023/06/09 07:34:33;;;;;;;4.10;2.63;;;;;;;;;;5067881;28;20025;-93
2023/06/09 07:36:59;;;;;;;4.22;2.17;;;;;;;;;;5080910;28;20028;-89
2023/06/09 07:39:25;;;;;;;6.20;2.15;;;;;;;;;;5066241;28;20055;-92
2023/06/09 07:41:50;;;;;;;3.75;2.13;;;;;;;;;;5064800;28;20415;-91
2023/06/09 07:44:15;;;;;;;3.63;2.15;;;;;;;;;;5077800;28;20411;-94
2023/06/09 07:46:41;;;;;;;3.97;2.37;;;;;;;;;;5078047;28;20032;-92
2023/06/09 07:49:06;;;;;;;5.93;2.50;;;;;;;;;;5075794;28;20032;-90
2023/06/09 07:51:36;;;;;;;6.13;2.40;;;;;;;;;;5064840;28;20024;-85
2023/06/09 07:54:02;;;;;;;5.15;2.60;;;;;;;;;;5059712;28;20048;-88
2023/06/09 07:56:27;;;;;;;3.65;2.00;;;;;;;;;;5078273;28;20116;-88
2023/06/09 07:58:52;;;;;;;3.27;2.37;;;;;;;;;;5094683;28;20036;-91
2023/06/09 08:01:18;;;;;;;4.05;2.28;;;;;;;;;;5080628;28;20098;-88
2023/06/09 08:03:43;;;;;;;3.55;2.40;;;;;;;;;;5081365;28;20115;-93
2023/06/09 08:06:09;;;;;;;3.83;2.60;;;;;;;;;;5082445;28;20105;-90
2023/06/09 08:08:35;;;;;;;6.18;3.00;;;;;;;;;;5095866;28;20278;-92
2023/06/09 08:11:00;;;;;;;7.78;3.45;;;;;;;;;;5116635;28;20074;-92
2023/06/09 08:13:27;;;;;;;4.87;2.83;;;;;;;;;;5073148;28;20052;-91
2023/06/09 08:15:53;;;;;;;6.30;2.80;;;;;;;;;;5070747;28;20283;-92
2023/06/09 08:18:18;;;;;;;7.18;3.13;;;;;;;;;;5059655;28;20042;-93
2023/06/09 08:20:43;;;;;;;5.67;3.10;;;;;;;;;;5075450;28;20419;-90
2023/06/09 08:23:09;;;;;;;6.65;3.08;;;;;;;;;;5076148;28;20306;-89
2023/06/09 08:25:37;;;;;;;6.40;2.70;;;;;;;;;;5081250;28;20052;-87
2023/06/09 08:28:03;;;;;;;7.05;2.92;;;;;;;;;;5089056;28;20282;-86
2023/06/09 08:30:28;;;;;;;4.50;2.88;;;;;;;;;;5082020;28;20399;-86
2023/06/09 08:32:53;;;;;;;5.05;3.17;;;;;;;;;;5071225;28;20392;-90
2023/06/09 08:35:18;;;;;;;6.00;3.10;;;;;;;;;;5092886;28;20029;-89
2023/06/09 08:37:44;;;;;;;7.15;2.85;;;;;;;;;;5067792;28;20279;-90
2023/06/09 08:40:09;;;;;;;6.60;2.90;;;;;;;;;;5072246;28;20051;-91
2023/06/09 08:42:34;;;;;;;5.05;2.70;;;;;;;;;;5076885;28;20604;-92
2023/06/09 08:45:01;;;;;;;8.40;2.90;;;;;;;;;;5056860;28;20127;-87
2023/06/09 08:47:26;;;;;;;5.68;2.95;;;;;;;;;;5068785;28;20068;-89
2023/06/09 08:49:57;;;;;;;5.07;3.28;;;;;;;;;;5077643;28;20597;-89
2023/06/09 08:52:22;;;;;;;11.38;3.97;;;;;;;;;;5063139;28;20028;-79
2023/06/09 08:54:47;;;;;;;6.70;3.63;;;;;;;;;;5081609;28;20046;-91
2023/06/09 08:57:13;;;;;;;7.23;3.10;;;;;;;;;;5077635;28;20693;-90
2023/06/09 08:59:38;;;;;;;5.80;3.00;;;;;;;;;;5080292;28;20313;-89
2023/06/09 09:02:04;;;;;;;6.37;3.10;;;;;;;;;;5063640;28;20046;-91
2023/06/09 09:04:29;;;;;;;5.72;2.97;;;;;;;;;;5072138;28;20405;-92
2023/06/09 09:09:22;;;;;;;5.50;3.22;;;;;;;;;;5084454;27;19924;-64
2023/06/09 09:11:51;;;;;;;5.43;2.78;;;;;;;;;;5085719;28;20456;-65
2023/06/09 09:14:16;;;;;;;6.40;3.00;;;;;;;;;;5084137;28;21121;-64
2023/06/09 09:16:42;;;;;;;6.20;2.70;;;;;;;;;;5082735;28;20036;-66
2023/06/09 09:19:07;;;;;;;6.65;3.15;;;;;;;;;;5082336;28;20490;-65
2023/06/09 09:21:33;;;;;;;5.93;2.70;;;;;;;;;;5071490;28;20016;-65
2023/06/09 09:24:01;;;;;;;5.35;3.13;;;;;;;;;;5063501;28;20059;-65
2023/06/09 09:26:29;;;;;;;4.40;2.45;;;;;;;;;;5067907;28;20028;-65
2023/06/09 09:28:58;;;;;;;4.68;3.13;;;;;;;;;;5067723;27;20073;-62
2023/06/09 09:31:33;;;;;;;5.90;2.83;;;;;;;;;;5075812;27;20016;-64
2023/06/09 09:33:58;;;;;;;5.60;2.55;;;;;;;;;;5078528;28;20399;-64
2023/06/09 09:36:23;;;;;;;5.45;2.85;;;;;;;;;;5073267;28;20094;-63
2023/06/09 09:38:48;;;;;;;6.43;3.30;;;;;;;;;;5055192;28;20501;-66
2023/06/09 09:41:14;;;;;;;8.63;3.28;;;;;;;;;;5077396;28;20347;-65
2023/06/09 09:43:40;;;;;;;5.28;2.95;;;;;;;;;;5084453;28;20036;-64
2023/06/09 09:46:06;;;;;;;6.20;3.05;;;;;;;;;;5067073;28;20082;-64
2023/06/09 09:48:31;;;;;;;4.97;3.13;;;;;;;;;;5086380;28;20032;-62
2023/06/09 09:50:57;;;;;;;4.38;3.20;;;;;;;;;;5081481;28;20497;-64
2023/06/09 09:53:25;;;;;;;4.57;2.95;;;;;;;;;;5067327;28;20122;-63
2023/06/09 09:55:51;;;;;;;5.15;2.55;;;;;;;;;;5068096;28;20115;-65
2023/06/09 09:58:17;;;;;;;7.57;2.92;;;;;;;;;;5082052;28;20087;-62
2023/06/09 10:00:43;;;;;;;5.15;2.60;;;;;;;;;;5075026;28;20036;-64
2023/06/09 10:03:09;;;;;;;3.22;2.47;;;;;;;;;;5058938;28;20116;-62
2023/06/09 10:05:40;;;;;;;6.47;3.15;;;;;;;;;;5047929;28;20143;-62
2023/06/09 10:08:06;;;;;;;4.32;2.60;;;;;;;;;;5054572;28;20445;-64
2023/06/09 10:10:32;;;;;;;5.78;3.08;;;;;;;;;;5071336;28;20048;-62
2023/06/09 10:12:57;;;;;;;4.38;2.75;;;;;;;;;;5079381;28;20043;-65
2023/06/09 10:15:23;;;;;;;4.50;2.70;;;;;;;;;;5092437;28;20032;-64
2023/06/09 10:17:49;;;;;;;4.63;2.50;;;;;;;;;;5085909;28;20100;-65
2023/06/09 10:20:14;;;;;;;4.55;2.67;;;;;;;;;;5081616;28;20044;-64
2023/06/09 10:22:40;;;;;;;4.03;2.53;;;;;;;;;;5065394;28;20089;-63
2023/06/09 10:25:06;;;;;;;4.18;2.95;;;;;;;;;;5081656;28;20056;-62
2023/06/09 10:27:31;;;;;;;4.22;2.70;;;;;;;;;;5080978;28;20118;-61
2023/06/09 10:29:57;;;;;;;5.70;3.13;;;;;;;;;;5081782;28;20177;-65
2023/06/09 10:32:23;;;;;;;4.07;2.87;;;;;;;;;;5080970;28;20055;-64
2023/06/09 10:34:48;;;;;;;5.65;3.30;;;;;;;;;;5069497;28;20806;-64
2023/06/09 10:37:26;;;;;;;4.50;3.03;;;;;;;;;;5082709;28;20060;-64
2023/06/09 10:40:01;;;;;;;4.20;2.95;;;;;;;;;;5085133;28;20293;-65
2023/06/09 10:42:26;;;;;;;5.90;3.08;;;;;;;;;;5087549;27;20066;-64
2023/06/09 10:44:58;;;;;;;4.30;2.80;;;;;;;;;;5086543;27;20067;-60
2023/06/09 10:47:43;;;;;;;4.25;2.90;;;;;;;;;;5084808;28;20278;-65
2023/06/09 10:50:24;;;;;;;4.28;2.80;;;;;;;;;;5072957;28;20032;-64
2023/06/09 10:52:53;;;;;;;4.38;3.15;;;;;;;;;;5085931;28;20043;-65
2023/06/09 10:55:21;;;;;;;4.90;2.90;;;;;;;;;;5085638;27;20127;-64
2023/06/09 10:57:47;;;;;;;4.07;2.50;;;;;;;;;;5086499;28;20053;-63
2023/06/09 11:00:13;;;;;;;5.10;2.77;;;;;;;;;;5077988;28;20035;-61
2023/06/09 11:02:39;;;;;;;5.10;2.60;;;;;;;;;;5071653;28;20275;-67
2023/06/09 11:05:05;;;;;;;5.28;2.80;;;;;;;;;;5071630;27;20139;-65
2023/06/09 11:07:32;;;;;;;4.00;2.70;;;;;;;;;;5076198;28;20131;-62
2023/06/09 11:09:58;;;;;;;4.50;3.00;;;;;;;;;;5068202;27;20029;-62
2023/06/09 11:12:35;;;;;;;7.60;3.53;;;;;;;;;;5079996;28;20039;-62
2023/06/09 11:15:00;;;;;;;7.57;2.90;;;;;;;;;;5084597;28;20498;-65
2023/06/09 11:17:36;;;;;;;4.03;2.30;;;;;;;;;;5084337;27;20127;-66
2023/06/09 11:20:05;;;;;;;7.35;2.80;;;;;;;;;;5082633;28;20359;-61
2023/06/09 11:22:31;;;;;;;4.05;2.65;;;;;;;;;;5084528;27;20027;-61
2023/06/09 11:24:56;;;;;;;5.30;2.87;;;;;;;;;;5073737;28;20412;-61
2023/06/09 11:27:21;;;;;;;4.40;2.67;;;;;;;;;;5082886;27;20262;-62
2023/06/09 11:30:05;;;;;;;4.30;2.97;;;;;;;;;;5078242;28;20318;-62
2023/06/09 11:32:46;;;;;;;3.85;2.75;;;;;;;;;;5084089;28;20042;-61
2023/06/09 11:35:27;;;;;;;5.07;2.90;;;;;;;;;;5078946;27;20102;-62
2023/06/09 11:37:52;;;;;;;3.40;2.45;;;;;;;;;;5077736;27;20118;-61
2023/06/09 11:40:18;;;;;;;4.20;2.40;;;;;;;;;;5071543;28;20078;-62
2023/06/09 11:42:43;;;;;;;3.80;2.40;;;;;;;;;;5083317;28;20112;-61
2023/06/09 11:45:09;;;;;;;4.15;2.83;;;;;;;;;;5085545;28;20455;-65
2023/06/09 11:47:34;;;;;;;4.80;2.30;;;;;;;;;;5082945;28;20036;-68
2023/06/09 11:50:04;;;;;;;5.30;2.80;;;;;;;;;;5090670;27;20055;-62
2023/06/09 11:52:30;;;;;;;4.15;2.60;;;;;;;;;;5071944;28;20048;-65
2023/06/09 11:54:55;;;;;;;3.75;2.58;;;;;;;;;;5087166;28;20793;-62
2023/06/09 11:57:21;;;;;;;5.57;2.38;;;;;;;;;;5075679;28;20041;-69
2023/06/09 11:59:46;;;;;;;3.42;2.20;;;;;;;;;;5073102;27;20111;-62
2023/06/09 12:02:12;;;;;;;5.53;2.43;;;;;;;;;;5070054;28;20837;-60
2023/06/09 12:04:41;;;;;;;6.72;2.50;;;;;;;;;;5074615;28;20321;-63
2023/06/09 12:07:09;;;;;;;3.88;2.33;;;;;;;;;;5076176;28;20189;-62
2023/06/09 12:09:35;;;;;;;5.55;2.20;;;;;;;;;;5074447;27;20631;-61
2023/06/09 12:12:00;;;;;;;5.18;2.33;;;;;;;;;;5080569;28;20037;-64
2023/06/09 12:14:25;;;;;;;3.80;2.00;;;;;;;;;;5074544;28;20036;-62
2023/06/09 12:16:51;;;;;;;5.25;2.08;;;;;;;;;;5074108;28;20598;-64
2023/06/09 12:19:19;;;;;;;3.03;2.15;;;;;;;;;;5074024;27;20050;-66
2023/06/09 12:21:50;;;;;;;4.78;1.90;;;;;;;;;;5075295;28;20024;-64
2023/06/09 12:24:15;;;;;;;2.58;1.80;;;;;;;;;;5076126;27;20056;-62
2023/06/09 12:26:41;;;;;;;4.80;2.20;;;;;;;;;;5082168;28;20177;-63
2023/06/09 12:29:07;;;;;;;4.72;2.25;;;;;;;;;;5072449;28;20036;-65
2023/06/09 12:31:32;;;;;;;3.10;1.92;;;;;;;;;;5074439;27;20097;-64
2023/06/09 12:33:58;;;;;;;5.38;2.15;;;;;;;;;;5075179;27;20048;-66
2023/06/09 12:36:24;;;;;;;3.45;2.03;;;;;;;;;;5075605;28;20043;-65
2023/06/09 12:38:49;;;;;;;3.25;1.80;;;;;;;;;;5076368;28;20029;-65
2023/06/09 12:41:15;;;;;;;3.90;2.07;;;;;;;;;;5076852;28;20040;-63
2023/06/09 12:43:51;;;;;;;3.95;2.00;;;;;;;;;;5073390;28;20362;-62
2023/06/09 12:46:35;;;;;;;3.58;2.03;;;;;;;;;;5076830;28;20028;-64
2023/06/09 12:49:04;;;;;;;2.85;1.88;;;;;;;;;;5081601;27;20185;-65
2023/06/09 12:51:29;;;;;;;4.15;1.90;;;;;;;;;;5075587;27;20032;-60
2023/06/09 12:53:55;;;;;;;3.33;2.22;;;;;;;;;;5076502;28;20042;-65
2023/06/09 12:56:20;;;;;;;3.33;1.98;;;;;;;;;;5077415;27;20052;-64
2023/06/09 12:58:46;;;;;;;3.03;2.20;;;;;;;;;;5075785;27;20588;-63
2023/06/09 13:01:11;;;;;;;3.08;2.08;;;;;;;;;;5074667;28;20359;-66
2023/06/09 13:03:36;;;;;;;4.38;2.00;;;;;;;;;;5055479;28;20071;-66
2023/06/09 13:06:02;;;;;;;4.60;2.20;;;;;;;;;;5065205;28;20064;-63
2023/06/09 13:08:27;;;;;;;4.47;2.20;;;;;;;;;;5065443;28;20044;-63
2023/06/09 13:10:52;;;;;;;3.80;2.03;;;;;;;;;;5072943;28;20056;-65
2023/06/09 13:13:17;;;;;;;3.37;2.27;;;;;;;;;;5080244;28;20024;-64
2023/06/09 13:15:43;;;;;;;3.07;1.90;;;;;;;;;;5078813;28;20293;-63
2023/06/09 13:18:14;;;;;;;6.10;2.50;;;;;;;;;;5075564;28;21081;-65
2023/06/09 13:20:39;;;;;;;3.22;2.10;;;;;;;;;;5081102;28;20090;-62
2023/06/09 13:23:05;;;;;;;3.40;2.25;;;;;;;;;;5073925;27;20417;-65
2023/06/09 13:25:30;;;;;;;3.47;2.20;;;;;;;;;;5073429;28;20078;-65
2023/06/09 13:27:55;;;;;;;3.83;2.20;;;;;;;;;;5075049;27;20759;-63
2023/06/09 13:30:21;;;;;;;3.25;2.40;;;;;;;;;;5073355;27;20056;-63
2023/06/09 13:32:46;;;;;;;3.25;1.95;;;;;;;;;;5074506;28;20528;-66
2023/06/09 13:35:11;;;;;;;5.50;2.33;;;;;;;;;;5070749;27;20720;-61
2023/06/09 13:37:37;;;;;;;4.50;2.00;;;;;;;;;;5075350;27;20791;-66
2023/06/09 13:40:02;;;;;;;3.53;2.10;;;;;;;;;;5070778;28;20032;-66
2023/06/09 13:42:27;;;;;;;4.60;2.10;;;;;;;;;;5073743;28;21263;-65
2023/06/09 13:44:53;;;;;;;3.53;2.10;;;;;;;;;;5074923;27;20197;-66
2023/06/09 13:47:18;;;;;;;4.00;2.07;;;;;;;;;;5073586;27;20294;-63
2023/06/09 13:49:43;;;;;;;3.75;1.85;;;;;;;;;;5072182;28;20301;-64
2023/06/09 13:52:09;;;;;;;3.67;2.00;;;;;;;;;;5073185;28;20063;-63
2023/06/09 13:54:34;;;;;;;4.22;2.10;;;;;;;;;;5071735;27;20681;-65
2023/06/09 13:56:59;;;;;;;5.30;2.00;;;;;;;;;;5074459;27;20091;-62
2023/06/09 13:59:25;;;;;;;2.95;1.90;;;;;;;;;;5072686;27;20568;-66
2023/06/09 14:01:50;;;;;;;2.50;2.00;;;;;;;;;;5069307;27;20008;-63
2023/06/09 14:04:15;;;;;;;5.80;1.73;;;;;;;;;;5073093;27;20028;-64
2023/06/09 14:06:41;;;;;;;2.70;1.80;;;;;;;;;;5069873;27;20124;-63
2023/06/09 14:09:07;;;;;;;2.92;1.92;;;;;;;;;;5071510;27;20101;-62
2023/06/09 14:11:33;;;;;;;3.35;1.90;;;;;;;;;;5075803;28;20027;-64
2023/06/09 14:13:58;;;;;;;3.20;2.20;;;;;;;;;;5071857;27;20032;-63
2023/06/09 14:16:24;;;;;;;3.88;2.20;;;;;;;;;;5074949;27;20121;-64
2023/06/09 14:18:49;;;;;;;5.13;2.22;;;;;;;;;;5070798;27;20024;-65
2023/06/09 14:21:14;;;;;;;3.47;2.03;;;;;;;;;;5058762;27;20031;-66
2023/06/09 14:23:40;;;;;;;4.57;2.40;;;;;;;;;;5070626;27;20015;-62
2023/06/09 14:26:06;;;;;;;3.97;2.22;;;;;;;;;;5077475;27;20098;-64
2023/06/09 14:28:31;;;;;;;3.53;2.00;;;;;;;;;;5071535;27;20855;-63
2023/06/09 14:30:56;;;;;;;3.33;2.20;;;;;;;;;;5056783;27;20043;-59
2023/06/09 14:33:22;;;;;;;4.38;2.20;;;;;;;;;;5054035;28;20615;-64
2023/06/09 14:35:47;;;;;;;2.90;2.13;;;;;;;;;;5059264;27;20012;-62
2023/06/09 14:38:13;;;;;;;3.42;2.20;;;;;;;;;;5051323;28;20012;-62
2023/06/09 14:40:38;;;;;;;3.72;2.00;;;;;;;;;;5059117;28;20016;-62